sensor_id;sensor_type;location;lat;lon;timestamp;pressure;altitude;pressure_sealevel;temperature
15701;BMP180;7950;42.744;23.174;2023-07-16T00:00:39;94624.63;;;22.44
15701;BMP180;7950;42.744;23.174;2023-07-16T00:03:09;94622.56;;;22.41
15701;BMP180;7950;42.744;23.174;2023-07-16T00:05:37;94623.22;;;22.29
15701;BMP180;7950;42.744;23.174;2023-07-16T00:08:06;94623.25;;;22.21
15701;BMP180;7950;42.744;23.174;2023-07-16T00:10:35;94611.13;;;22.32
15701;BMP180;7950;42.744;23.174;2023-07-16T00:13:04;94621.34;;;22.21
15701;BMP180;7950;42.744;23.174;2023-07-16T00:15:33;94615.56;;;22.11
15701;BMP180;7950;42.744;23.174;2023-07-16T00:18:01;94615.72;;;22.14
15701;BMP180;7950;42.744;23.174;2023-07-16T00:20:32;94618.84;;;21.99
15701;BMP180;7950;42.744;23.174;2023-07-16T00:23:00;94620.75;;;21.99
15701;BMP180;7950;42.744;23.174;2023-07-16T00:25:29;94612.91;;;21.94
15701;BMP180;7950;42.744;23.174;2023-07-16T00:27:58;94614.03;;;21.93
15701;BMP180;7950;42.744;23.174;2023-07-16T00:30:26;94611.97;;;21.90
15701;BMP180;7950;42.744;23.174;2023-07-16T00:32:55;94620.28;;;21.97
15701;BMP180;7950;42.744;23.174;2023-07-16T00:35:23;94620.94;;;21.94
15701;BMP180;7950;42.744;23.174;2023-07-16T00:37:53;94616.81;;;21.88
15701;BMP180;7950;42.744;23.174;2023-07-16T00:40:22;94615.59;;;21.94
15701;BMP180;7950;42.744;23.174;2023-07-16T00:42:50;94617.78;;;22.00
15701;BMP180;7950;42.744;23.174;2023-07-16T00:45:19;94619.66;;;22.00
15701;BMP180;7950;42.744;23.174;2023-07-16T00:47:47;94621.22;;;21.84
15701;BMP180;7950;42.744;23.174;2023-07-16T00:50:16;94625.31;;;21.90
15701;BMP180;7950;42.744;23.174;2023-07-16T00:52:45;94612.44;;;21.92
15701;BMP180;7950;42.744;23.174;2023-07-16T00:55:15;94613.06;;;21.80
15701;BMP180;7950;42.744;23.174;2023-07-16T00:57:45;94612.75;;;21.82
15701;BMP180;7950;42.744;23.174;2023-07-16T01:00:15;94612.28;;;21.88
15701;BMP180;7950;42.744;23.174;2023-07-16T01:02:43;94614.31;;;21.83
15701;BMP180;7950;42.744;23.174;2023-07-16T01:05:12;94614.31;;;21.83
15701;BMP180;7950;42.744;23.174;2023-07-16T01:07:49;94615.88;;;21.84
15701;BMP180;7950;42.744;23.174;2023-07-16T01:10:24;94611.50;;;21.88
15701;BMP180;7950;42.744;23.174;2023-07-16T01:12:56;94612.28;;;21.80
15701;BMP180;7950;42.744;23.174;2023-07-16T01:15:25;94621.88;;;21.81
15701;BMP180;7950;42.744;23.174;2023-07-16T01:17:53;94620.13;;;21.76
15701;BMP180;7950;42.744;23.174;2023-07-16T01:20:22;94618.72;;;21.70
15701;BMP180;7950;42.744;23.174;2023-07-16T01:23:26;94613.19;;;21.67
15701;BMP180;7950;42.744;23.174;2023-07-16T01:26:13;94620.59;;;21.70
15701;BMP180;7950;42.744;23.174;2023-07-16T01:29:21;94611.00;;;21.69
15701;BMP180;7950;42.744;23.174;2023-07-16T01:31:53;94604.06;;;21.34
15701;BMP180;7950;42.744;23.174;2023-07-16T01:34:26;94606.91;;;21.46
15701;BMP180;7950;42.744;23.174;2023-07-16T01:36:56;94617.72;;;21.41
15701;BMP180;7950;42.744;23.174;2023-07-16T01:39:24;94613.34;;;21.45
15701;BMP180;7950;42.744;23.174;2023-07-16T01:41:53;94620.41;;;21.41
15701;BMP180;7950;42.744;23.174;2023-07-16T01:44:23;94612.69;;;21.48
15701;BMP180;7950;42.744;23.174;2023-07-16T01:47:05;94612.06;;;21.59
15701;BMP180;7950;42.744;23.174;2023-07-16T01:49:34;94616.16;;;21.57
15701;BMP180;7950;42.744;23.174;2023-07-16T01:52:06;94615.22;;;21.53
15701;BMP180;7950;42.744;23.174;2023-07-16T01:54:34;94618.38;;;21.55
15701;BMP180;7950;42.744;23.174;2023-07-16T01:57:04;94627.31;;;21.42
15701;BMP180;7950;42.744;23.174;2023-07-16T01:59:34;94614.59;;;21.47
15701;BMP180;7950;42.744;23.174;2023-07-16T02:02:03;94624.03;;;21.45
15701;BMP180;7950;42.744;23.174;2023-07-16T02:04:32;94620.88;;;21.51
15701;BMP180;7950;42.744;23.174;2023-07-16T02:07:00;94614.28;;;21.49
15701;BMP180;7950;42.744;23.174;2023-07-16T02:09:29;94621.81;;;21.47
15701;BMP180;7950;42.744;23.174;2023-07-16T02:11:58;94624.03;;;21.45
15701;BMP180;7950;42.744;23.174;2023-07-16T02:14:26;94618.69;;;21.45
15701;BMP180;7950;42.744;23.174;2023-07-16T02:16:56;94618.53;;;21.50
15701;BMP180;7950;42.744;23.174;2023-07-16T02:19:25;94618.53;;;21.50
15701;BMP180;7950;42.744;23.174;2023-07-16T02:21:54;94625.59;;;21.54
15701;BMP180;7950;42.744;23.174;2023-07-16T02:24:22;94623.69;;;21.38
15701;BMP180;7950;42.744;23.174;2023-07-16T02:26:51;94618.97;;;21.35
15701;BMP180;7950;42.744;23.174;2023-07-16T02:29:20;94629.19;;;21.41
15701;BMP180;7950;42.744;23.174;2023-07-16T02:31:48;94627.47;;;21.45
15701;BMP180;7950;42.744;23.174;2023-07-16T02:34:18;94635.91;;;21.39
15701;BMP180;7950;42.744;23.174;2023-07-16T02:36:46;94632.00;;;21.36
15701;BMP180;7950;42.744;23.174;2023-07-16T02:39:15;94634.50;;;21.33
15701;BMP180;7950;42.744;23.174;2023-07-16T02:41:43;94635.44;;;21.28
15701;BMP180;7950;42.744;23.174;2023-07-16T02:44:12;94637.94;;;21.25
15701;BMP180;7950;42.744;23.174;2023-07-16T02:46:40;94638.88;;;21.20
15701;BMP180;7950;42.744;23.174;2023-07-16T02:49:11;94628.03;;;21.17
15701;BMP180;7950;42.744;23.174;2023-07-16T02:51:41;94637.94;;;21.16
15701;BMP180;7950;42.744;23.174;2023-07-16T02:54:10;94634.00;;;21.14
15701;BMP180;7950;42.744;23.174;2023-07-16T02:56:38;94642.13;;;21.09
15701;BMP180;7950;42.744;23.174;2023-07-16T02:59:07;94638.03;;;21.03
15701;BMP180;7950;42.744;23.174;2023-07-16T03:01:35;94641.81;;;21.02
15701;BMP180;7950;42.744;23.174;2023-07-16T03:04:04;94642.59;;;21.02
15701;BMP180;7950;42.744;23.174;2023-07-16T03:06:32;94643.38;;;21.03
15701;BMP180;7950;42.744;23.174;2023-07-16T03:09:03;94637.75;;;21.13
15701;BMP180;7950;42.744;23.174;2023-07-16T03:11:31;94647.97;;;21.19
15701;BMP180;7950;42.744;23.174;2023-07-16T03:14:00;94644.03;;;21.17
15701;BMP180;7950;42.744;23.174;2023-07-16T03:16:28;94637.06;;;20.99
15701;BMP180;7950;42.744;23.174;2023-07-16T03:18:57;94643.38;;;21.03
15701;BMP180;7950;42.744;23.174;2023-07-16T03:21:29;94642.16;;;21.17
15701;BMP180;7950;42.744;23.174;2023-07-16T03:23:58;94650.38;;;21.38
15701;BMP180;7950;42.744;23.174;2023-07-16T03:26:28;94647.56;;;21.43
15701;BMP180;7950;42.744;23.174;2023-07-16T03:28:56;94651.97;;;21.56
15701;BMP180;7950;42.744;23.174;2023-07-16T03:31:25;94648.19;;;21.57
15701;BMP180;7950;42.744;23.174;2023-07-16T03:33:54;94652.47;;;21.58
15701;BMP180;7950;42.744;23.174;2023-07-16T03:36:22;94648.53;;;21.55
15701;BMP180;7950;42.744;23.174;2023-07-16T03:38:51;94657.66;;;21.63
15701;BMP180;7950;42.744;23.174;2023-07-16T03:41:20;94656.53;;;21.64
15701;BMP180;7950;42.744;23.174;2023-07-16T03:43:49;94652.81;;;21.73
15701;BMP180;7950;42.744;23.174;2023-07-16T03:46:18;94655.03;;;21.80
15701;BMP180;7950;42.744;23.174;2023-07-16T03:48:47;94660.81;;;21.90
15701;BMP180;7950;42.744;23.174;2023-07-16T03:51:15;94660.81;;;22.07
15701;BMP180;7950;42.744;23.174;2023-07-16T03:53:45;94663.03;;;22.14
15701;BMP180;7950;42.744;23.174;2023-07-16T03:56:13;94661.78;;;22.20
15701;BMP180;7950;42.744;23.174;2023-07-16T03:58:42;94667.44;;;22.18
15701;BMP180;7950;42.744;23.174;2023-07-16T04:01:12;94673.41;;;22.24
15701;BMP180;7950;42.744;23.174;2023-07-16T04:03:41;94668.22;;;22.27
15701;BMP180;7950;42.744;23.174;2023-07-16T04:06:11;94667.69;;;22.42
15701;BMP180;7950;42.744;23.174;2023-07-16T04:08:41;94676.22;;;22.53
15701;BMP180;7950;42.744;23.174;2023-07-16T04:11:09;94675.41;;;22.52
15701;BMP180;7950;42.744;23.174;2023-07-16T04:13:38;94674.94;;;22.67
15701;BMP180;7950;42.744;23.174;2023-07-16T04:16:06;94676.50;;;22.77
15701;BMP180;7950;42.744;23.174;2023-07-16T04:18:36;94681.03;;;22.76
15701;BMP180;7950;42.744;23.174;2023-07-16T04:21:05;94683.34;;;22.95
15701;BMP180;7950;42.744;23.174;2023-07-16T04:23:33;94682.06;;;23.01
15701;BMP180;7950;42.744;23.174;2023-07-16T04:26:02;94679.50;;;23.13
15701;BMP180;7950;42.744;23.174;2023-07-16T04:28:30;94675.69;;;23.23
15701;BMP180;7950;42.744;23.174;2023-07-16T04:30:59;94678.41;;;23.43
15701;BMP180;7950;42.744;23.174;2023-07-16T04:33:28;94685.59;;;23.60
15701;BMP180;7950;42.744;23.174;2023-07-16T04:35:57;94684.16;;;23.62
15701;BMP180;7950;42.744;23.174;2023-07-16T04:38:26;94691.38;;;23.70
15701;BMP180;7950;42.744;23.174;2023-07-16T04:40:54;94687.69;;;23.75
15701;BMP180;7950;42.744;23.174;2023-07-16T04:43:23;94685.16;;;23.78
15701;BMP180;7950;42.744;23.174;2023-07-16T04:45:52;94696.94;;;23.86
15701;BMP180;7950;42.744;23.174;2023-07-16T04:48:20;94687.81;;;24.07
15701;BMP180;7950;42.744;23.174;2023-07-16T04:50:50;94690.47;;;24.28
15701;BMP180;7950;42.744;23.174;2023-07-16T04:53:22;94687.03;;;24.27
15701;BMP180;7950;42.744;23.174;2023-07-16T04:55:51;94690.44;;;24.36
15701;BMP180;7950;42.744;23.174;2023-07-16T04:58:19;94701.19;;;24.48
15701;BMP180;7950;42.744;23.174;2023-07-16T05:00:48;94702.28;;;24.47
15701;BMP180;7950;42.744;23.174;2023-07-16T05:03:17;94704.13;;;24.55
15701;BMP180;7950;42.744;23.174;2023-07-16T05:05:45;94697.47;;;24.61
15701;BMP180;7950;42.744;23.174;2023-07-16T05:08:14;94691.94;;;24.78
15701;BMP180;7950;42.744;23.174;2023-07-16T05:10:44;94694.59;;;24.78
15701;BMP180;7950;42.744;23.174;2023-07-16T05:13:13;94689.34;;;24.82
15701;BMP180;7950;42.744;23.174;2023-07-16T05:15:44;94693.63;;;24.83
15701;BMP180;7950;42.744;23.174;2023-07-16T05:18:12;94694.44;;;24.95
15701;BMP180;7950;42.744;23.174;2023-07-16T05:20:41;94689.09;;;25.07
15701;BMP180;7950;42.744;23.174;2023-07-16T05:23:10;94696.03;;;25.08
15701;BMP180;7950;42.744;23.174;2023-07-16T05:25:38;94696.94;;;25.12
15701;BMP180;7950;42.744;23.174;2023-07-16T05:28:08;94691.38;;;25.29
15701;BMP180;7950;42.744;23.174;2023-07-16T05:30:37;94701.78;;;25.43
15701;BMP180;7950;42.744;23.174;2023-07-16T05:33:05;94703.81;;;25.46
15701;BMP180;7950;42.744;23.174;2023-07-16T05:35:34;94710.19;;;25.65
15701;BMP180;7950;42.744;23.174;2023-07-16T05:38:02;94705.72;;;25.69
15701;BMP180;7950;42.744;23.174;2023-07-16T05:40:31;94709.63;;;25.72
15701;BMP180;7950;42.744;23.174;2023-07-16T05:43:00;94706.47;;;25.70
15701;BMP180;7950;42.744;23.174;2023-07-16T05:45:29;94701.34;;;25.77
15701;BMP180;7950;42.744;23.174;2023-07-16T05:47:58;94703.88;;;25.85
15701;BMP180;7950;42.744;23.174;2023-07-16T05:50:27;94708.25;;;25.90
15701;BMP180;7950;42.744;23.174;2023-07-16T05:52:55;94708.81;;;26.07
15701;BMP180;7950;42.744;23.174;2023-07-16T05:55:24;94711.22;;;26.24
15701;BMP180;7950;42.744;23.174;2023-07-16T05:57:53;94704.34;;;26.39
15701;BMP180;7950;42.744;23.174;2023-07-16T06:00:22;94716.84;;;26.59
15701;BMP180;7950;42.744;23.174;2023-07-16T06:02:52;94712.47;;;26.66
15701;BMP180;7950;42.744;23.174;2023-07-16T06:05:21;94705.97;;;26.67
15701;BMP180;7950;42.744;23.174;2023-07-16T06:07:51;94716.72;;;26.67
15701;BMP180;7950;42.744;23.174;2023-07-16T06:10:20;94711.00;;;26.69
15701;BMP180;7950;42.744;23.174;2023-07-16T06:12:48;94716.09;;;26.58
15701;BMP180;7950;42.744;23.174;2023-07-16T06:15:17;94719.22;;;26.60
15701;BMP180;7950;42.744;23.174;2023-07-16T06:17:45;94709.97;;;26.73
15701;BMP180;7950;42.744;23.174;2023-07-16T06:20:16;94715.38;;;26.89
15701;BMP180;7950;42.744;23.174;2023-07-16T06:22:44;94709.69;;;27.06
15701;BMP180;7950;42.744;23.174;2023-07-16T06:25:13;94714.47;;;27.12
15701;BMP180;7950;42.744;23.174;2023-07-16T06:27:41;94707.38;;;27.20
15701;BMP180;7950;42.744;23.174;2023-07-16T06:30:10;94705.63;;;27.27
15701;BMP180;7950;42.744;23.174;2023-07-16T06:32:39;94699.91;;;27.44
15701;BMP180;7950;42.744;23.174;2023-07-16T06:35:08;94698.78;;;27.61
15701;BMP180;7950;42.744;23.174;2023-07-16T06:37:38;94703.78;;;27.62
15701;BMP180;7950;42.744;23.174;2023-07-16T06:40:08;94702.41;;;27.68
15701;BMP180;7950;42.744;23.174;2023-07-16T06:42:37;94700.84;;;27.67
15701;BMP180;7950;42.744;23.174;2023-07-16T06:45:07;94700.25;;;27.89
15701;BMP180;7950;42.744;23.174;2023-07-16T06:47:36;94693.78;;;27.94
15701;BMP180;7950;42.744;23.174;2023-07-16T06:50:06;94692.19;;;28.08
15701;BMP180;7950;42.744;23.174;2023-07-16T06:52:34;94694.03;;;28.23
15701;BMP180;7950;42.744;23.174;2023-07-16T06:55:05;94698.81;;;28.30
15701;BMP180;7950;42.744;23.174;2023-07-16T06:57:34;94696.06;;;28.45
15701;BMP180;7950;42.744;23.174;2023-07-16T07:00:04;94691.22;;;28.54
15701;BMP180;7950;42.744;23.174;2023-07-16T07:02:32;94684.69;;;28.55
15701;BMP180;7950;42.744;23.174;2023-07-16T07:05:02;94690.59;;;28.42
15701;BMP180;7950;42.744;23.174;2023-07-16T07:07:31;94690.97;;;28.40
15701;BMP180;7950;42.744;23.174;2023-07-16T07:10:00;94689.81;;;28.41
15701;BMP180;7950;42.744;23.174;2023-07-16T07:12:30;94693.06;;;28.50
15701;BMP180;7950;42.744;23.174;2023-07-16T07:15:06;94686.69;;;28.58
15701;BMP180;7950;42.744;23.174;2023-07-16T07:17:34;94690.88;;;28.56
15701;BMP180;7950;42.744;23.174;2023-07-16T07:20:04;94683.34;;;28.65
15701;BMP180;7950;42.744;23.174;2023-07-16T07:22:33;94692.94;;;28.62
15701;BMP180;7950;42.744;23.174;2023-07-16T07:25:03;94686.53;;;28.70
15701;BMP180;7950;42.744;23.174;2023-07-16T07:27:33;94684.97;;;28.50
15701;BMP180;7950;42.744;23.174;2023-07-16T07:30:02;94686.28;;;28.56
15701;BMP180;7950;42.744;23.174;2023-07-16T07:32:30;94681.00;;;28.63
15701;BMP180;7950;42.744;23.174;2023-07-16T07:34:59;94687.16;;;28.83
15701;BMP180;7950;42.744;23.174;2023-07-16T07:37:30;94684.38;;;28.98
15701;BMP180;7950;42.744;23.174;2023-07-16T07:39:59;94681.38;;;29.03
15701;BMP180;7950;42.744;23.174;2023-07-16T07:42:27;94682.03;;;29.16
15701;BMP180;7950;42.744;23.174;2023-07-16T07:44:58;94678.34;;;29.27
15701;BMP180;7950;42.744;23.174;2023-07-16T07:47:27;94677.88;;;29.45
15701;BMP180;7950;42.744;23.174;2023-07-16T07:49:56;94681.94;;;29.35
15701;BMP180;7950;42.744;23.174;2023-07-16T07:52:26;94671.44;;;29.30
15701;BMP180;7950;42.744;23.174;2023-07-16T07:54:55;94670.59;;;29.49
15701;BMP180;7950;42.744;23.174;2023-07-16T07:57:24;94663.03;;;29.58
15701;BMP180;7950;42.744;23.174;2023-07-16T07:59:52;94675.09;;;29.64
15701;BMP180;7950;42.744;23.174;2023-07-16T08:02:26;94668.31;;;29.73
15701;BMP180;7950;42.744;23.174;2023-07-16T08:04:55;94670.63;;;29.75
15701;BMP180;7950;42.744;23.174;2023-07-16T08:07:24;94661.75;;;29.74
15701;BMP180;7950;42.744;23.174;2023-07-16T08:09:53;94668.88;;;29.86
15701;BMP180;7950;42.744;23.174;2023-07-16T08:12:21;94662.50;;;30.01
15701;BMP180;7950;42.744;23.174;2023-07-16T08:14:50;94663.53;;;30.19
15701;BMP180;7950;42.744;23.174;2023-07-16T08:17:18;94669.88;;;30.30
15701;BMP180;7950;42.744;23.174;2023-07-16T08:19:51;94664.19;;;30.38
15701;BMP180;7950;42.744;23.174;2023-07-16T08:22:20;94662.44;;;30.23
15701;BMP180;7950;42.744;23.174;2023-07-16T08:24:50;94666.28;;;29.93
15701;BMP180;7950;42.744;23.174;2023-07-16T08:27:19;94666.34;;;30.00
15701;BMP180;7950;42.744;23.174;2023-07-16T08:29:47;94667.41;;;30.18
15701;BMP180;7950;42.744;23.174;2023-07-16T08:32:16;94674.66;;;30.40
15701;BMP180;7950;42.744;23.174;2023-07-16T08:34:44;94673.81;;;30.36
15701;BMP180;7950;42.744;23.174;2023-07-16T08:37:14;94657.44;;;30.55
15701;BMP180;7950;42.744;23.174;2023-07-16T08:39:43;94668.66;;;30.57
15701;BMP180;7950;42.744;23.174;2023-07-16T08:42:12;94658.22;;;30.59
15701;BMP180;7950;42.744;23.174;2023-07-16T08:44:41;94661.81;;;30.66
15701;BMP180;7950;42.744;23.174;2023-07-16T08:47:10;94653.78;;;30.73
15701;BMP180;7950;42.744;23.174;2023-07-16T08:49:40;94650.16;;;30.62
15701;BMP180;7950;42.744;23.174;2023-07-16T08:52:10;94658.09;;;30.78
15701;BMP180;7950;42.744;23.174;2023-07-16T08:54:40;94654.75;;;30.91
15701;BMP180;7950;42.744;23.174;2023-07-16T08:57:09;94650.94;;;30.96
15701;BMP180;7950;42.744;23.174;2023-07-16T08:59:38;94657.66;;;31.09
15701;BMP180;7950;42.744;23.174;2023-07-16T09:02:07;94660.97;;;30.92
15701;BMP180;7950;42.744;23.174;2023-07-16T09:04:36;94650.28;;;31.09
15701;BMP180;7950;42.744;23.174;2023-07-16T09:07:05;94640.81;;;31.26
15701;BMP180;7950;42.744;23.174;2023-07-16T09:09:34;94640.53;;;31.41
15701;BMP180;7950;42.744;23.174;2023-07-16T09:12:05;94646.38;;;31.47
15701;BMP180;7950;42.744;23.174;2023-07-16T09:14:33;94640.56;;;31.45
15701;BMP180;7950;42.744;23.174;2023-07-16T09:17:02;94641.75;;;31.47
15701;BMP180;7950;42.744;23.174;2023-07-16T09:19:32;94630.53;;;31.52
15701;BMP180;7950;42.744;23.174;2023-07-16T09:22:01;94637.28;;;31.72
15701;BMP180;7950;42.744;23.174;2023-07-16T09:24:30;94633.91;;;31.86
15701;BMP180;7950;42.744;23.174;2023-07-16T09:26:58;94625.44;;;31.98
15701;BMP180;7950;42.744;23.174;2023-07-16T09:29:30;94635.94;;;32.03
15701;BMP180;7950;42.744;23.174;2023-07-16T09:32:00;94637.59;;;32.18
15701;BMP180;7950;42.744;23.174;2023-07-16T09:34:30;94642.84;;;31.93
15701;BMP180;7950;42.744;23.174;2023-07-16T09:37:01;94630.50;;;32.03
15701;BMP180;7950;42.744;23.174;2023-07-16T09:39:31;94637.97;;;32.20
15701;BMP180;7950;42.744;23.174;2023-07-16T09:42:02;94629.81;;;32.20
15701;BMP180;7950;42.744;23.174;2023-07-16T09:44:33;94630.19;;;32.18
15701;BMP180;7950;42.744;23.174;2023-07-16T09:47:02;94625.13;;;32.10
15701;BMP180;7950;42.744;23.174;2023-07-16T09:49:30;94624.78;;;32.22
15701;BMP180;7950;42.744;23.174;2023-07-16T09:52:02;94616.72;;;32.29
15701;BMP180;7950;42.744;23.174;2023-07-16T09:54:32;94616.72;;;32.29
15701;BMP180;7950;42.744;23.174;2023-07-16T09:57:04;94615.09;;;32.21
15701;BMP180;7950;42.744;23.174;2023-07-16T09:59:36;94617.41;;;32.19
15701;BMP180;7950;42.744;23.174;2023-07-16T10:02:06;94614.69;;;32.19
15701;BMP180;7950;42.744;23.174;2023-07-16T10:04:40;94620.50;;;32.17
15701;BMP180;7950;42.744;23.174;2023-07-16T10:07:20;94614.31;;;32.20
15701;BMP180;7950;42.744;23.174;2023-07-16T10:09:54;94618.31;;;32.40
15701;BMP180;7950;42.744;23.174;2023-07-16T10:12:25;94603.25;;;32.60
15701;BMP180;7950;42.744;23.174;2023-07-16T10:14:57;94602.94;;;32.83
15701;BMP180;7950;42.744;23.174;2023-07-16T10:17:26;94600.59;;;32.92
15701;BMP180;7950;42.744;23.174;2023-07-16T10:19:57;94594.44;;;33.16
15701;BMP180;7950;42.744;23.174;2023-07-16T10:22:35;94594.41;;;33.09
15701;BMP180;7950;42.744;23.174;2023-07-16T10:25:09;94595.16;;;32.92
15701;BMP180;7950;42.744;23.174;2023-07-16T10:27:38;94585.78;;;32.61
15701;BMP180;7950;42.744;23.174;2023-07-16T10:30:09;94590.41;;;32.54
15701;BMP180;7950;42.744;23.174;2023-07-16T10:32:38;94591.59;;;32.60
15701;BMP180;7950;42.744;23.174;2023-07-16T10:35:08;94582.69;;;32.63
15701;BMP180;7950;42.744;23.174;2023-07-16T10:37:39;94583.91;;;32.90
15701;BMP180;7950;42.744;23.174;2023-07-16T10:40:11;94581.22;;;33.18
15701;BMP180;7950;42.744;23.174;2023-07-16T10:42:41;94589.78;;;33.41
15701;BMP180;7950;42.744;23.174;2023-07-16T10:45:12;94585.88;;;33.66
15701;BMP180;7950;42.744;23.174;2023-07-16T10:47:52;94587.03;;;33.79
15701;BMP180;7950;42.744;23.174;2023-07-16T10:50:22;94579.66;;;33.83
15701;BMP180;7950;42.744;23.174;2023-07-16T10:52:51;94573.38;;;34.00
15701;BMP180;7950;42.744;23.174;2023-07-16T10:55:21;94568.66;;;34.15
15701;BMP180;7950;42.744;23.174;2023-07-16T10:57:51;94575.63;;;34.23
15701;BMP180;7950;42.744;23.174;2023-07-16T11:00:23;94578.00;;;34.14
15701;BMP180;7950;42.744;23.174;2023-07-16T11:02:52;94565.56;;;34.09
15701;BMP180;7950;42.744;23.174;2023-07-16T11:05:21;94571.34;;;34.22
15701;BMP180;7950;42.744;23.174;2023-07-16T11:07:50;94575.63;;;34.33
15701;BMP180;7950;42.744;23.174;2023-07-16T11:10:23;94562.38;;;34.39
15701;BMP180;7950;42.744;23.174;2023-07-16T11:12:52;94559.63;;;34.39
15701;BMP180;7950;42.744;23.174;2023-07-16T11:15:31;94557.63;;;34.50
15701;BMP180;7950;42.744;23.174;2023-07-16T11:18:02;94552.16;;;34.57
15701;BMP180;7950;42.744;23.174;2023-07-16T11:20:31;94551.38;;;34.53
15701;BMP180;7950;42.744;23.174;2023-07-16T11:22:59;94547.09;;;34.55
15701;BMP180;7950;42.744;23.174;2023-07-16T11:25:29;94543.56;;;34.58
15701;BMP180;7950;42.744;23.174;2023-07-16T11:27:57;94548.28;;;34.51
15701;BMP180;7950;42.744;23.174;2023-07-16T11:30:26;94542.88;;;34.40
15701;BMP180;7950;42.744;23.174;2023-07-16T11:32:58;94536.06;;;33.94
15701;BMP180;7950;42.744;23.174;2023-07-16T11:35:27;94550.06;;;33.89
15701;BMP180;7950;42.744;23.174;2023-07-16T11:37:56;94543.09;;;33.88
15701;BMP180;7950;42.744;23.174;2023-07-16T11:40:25;94536.00;;;34.04
15701;BMP180;7950;42.744;23.174;2023-07-16T11:42:53;94527.06;;;34.07
15701;BMP180;7950;42.744;23.174;2023-07-16T11:45:24;94528.19;;;34.20
15701;BMP180;7950;42.744;23.174;2023-07-16T11:47:54;94536.34;;;34.31
15701;BMP180;7950;42.744;23.174;2023-07-16T11:50:25;94526.94;;;34.35
15701;BMP180;7950;42.744;23.174;2023-07-16T11:52:56;94538.25;;;34.34
15701;BMP180;7950;42.744;23.174;2023-07-16T11:55:25;94534.72;;;34.37
15701;BMP180;7950;42.744;23.174;2023-07-16T11:57:53;94526.63;;;34.30
15701;BMP180;7950;42.744;23.174;2023-07-16T12:00:24;94530.03;;;34.41
15701;BMP180;7950;42.744;23.174;2023-07-16T12:02:52;94529.56;;;34.56
15701;BMP180;7950;42.744;23.174;2023-07-16T12:05:23;94531.03;;;34.68
15701;BMP180;7950;42.744;23.174;2023-07-16T12:08:13;94528.28;;;34.75
15701;BMP180;7950;42.744;23.174;2023-07-16T12:10:42;94520.06;;;34.82
15701;BMP180;7950;42.744;23.174;2023-07-16T12:13:11;94516.44;;;34.99
15701;BMP180;7950;42.744;23.174;2023-07-16T12:15:39;94522.59;;;35.10
15701;BMP180;7950;42.744;23.174;2023-07-16T12:18:08;94520.78;;;34.93
15701;BMP180;7950;42.744;23.174;2023-07-16T12:20:38;94510.53;;;35.04
15701;BMP180;7950;42.744;23.174;2023-07-16T12:23:07;94511.22;;;35.19
15701;BMP180;7950;42.744;23.174;2023-07-16T12:25:36;94514.66;;;35.30
15701;BMP180;7950;42.744;23.174;2023-07-16T12:28:04;94507.53;;;35.39
15701;BMP180;7950;42.744;23.174;2023-07-16T12:30:33;94507.13;;;35.41
15701;BMP180;7950;42.744;23.174;2023-07-16T12:33:02;94505.84;;;35.12
15701;BMP180;7950;42.744;23.174;2023-07-16T12:35:31;94505.16;;;34.97
15701;BMP180;7950;42.744;23.174;2023-07-16T12:38:01;94507.50;;;34.95
15701;BMP180;7950;42.744;23.174;2023-07-16T12:40:30;94500.53;;;34.91
15701;BMP180;7950;42.744;23.174;2023-07-16T12:42:59;94498.97;;;34.93
15701;BMP180;7950;42.744;23.174;2023-07-16T12:45:28;94496.47;;;35.13
15701;BMP180;7950;42.744;23.174;2023-07-16T12:47:56;94500.66;;;35.24
15701;BMP180;7950;42.744;23.174;2023-07-16T12:50:25;94507.69;;;35.22
15701;BMP180;7950;42.744;23.174;2023-07-16T12:52:56;94494.44;;;35.20
15701;BMP180;7950;42.744;23.174;2023-07-16T12:55:26;94496.72;;;35.32
15701;BMP180;7950;42.744;23.174;2023-07-16T12:57:54;94497.75;;;35.45
15701;BMP180;7950;42.744;23.174;2023-07-16T13:00:23;94499.59;;;35.55
15701;BMP180;7950;42.744;23.174;2023-07-16T13:02:52;94489.19;;;35.43
15701;BMP180;7950;42.744;23.174;2023-07-16T13:05:21;94497.06;;;35.34
15701;BMP180;7950;42.744;23.174;2023-07-16T13:07:49;94486.56;;;35.33
15701;BMP180;7950;42.744;23.174;2023-07-16T13:10:19;94488.38;;;35.46
15701;BMP180;7950;42.744;23.174;2023-07-16T13:12:51;94493.78;;;35.50
15701;BMP180;7950;42.744;23.174;2023-07-16T13:15:20;94489.50;;;35.49
15701;BMP180;7950;42.744;23.174;2023-07-16T13:17:49;94482.63;;;35.34
15701;BMP180;7950;42.744;23.174;2023-07-16T13:20:18;94484.63;;;35.26
15701;BMP180;7950;42.744;23.174;2023-07-16T13:22:47;94486.09;;;35.41
15701;BMP180;7950;42.744;23.174;2023-07-16T13:25:16;94490.72;;;35.48
15701;BMP180;7950;42.744;23.174;2023-07-16T13:27:45;94477.34;;;35.57
15701;BMP180;7950;42.744;23.174;2023-07-16T13:30:15;94481.47;;;35.72
15701;BMP180;7950;42.744;23.174;2023-07-16T13:32:44;94475.66;;;35.70
15701;BMP180;7950;42.744;23.174;2023-07-16T13:35:13;94477.34;;;35.57
15701;BMP180;7950;42.744;23.174;2023-07-16T13:37:42;94478.44;;;35.26
15701;BMP180;7950;42.744;23.174;2023-07-16T13:40:12;94475.00;;;35.15
15701;BMP180;7950;42.744;23.174;2023-07-16T13:42:40;94464.59;;;35.06
15701;BMP180;7950;42.744;23.174;2023-07-16T13:45:09;94465.41;;;35.00
15701;BMP180;7950;42.744;23.174;2023-07-16T13:47:39;94462.66;;;35.03
15701;BMP180;7950;42.744;23.174;2023-07-16T13:50:09;94460.75;;;34.97
15701;BMP180;7950;42.744;23.174;2023-07-16T13:52:37;94460.22;;;35.12
15701;BMP180;7950;42.744;23.174;2023-07-16T13:55:06;94461.28;;;35.25
15701;BMP180;7950;42.744;23.174;2023-07-16T13:57:35;94452.22;;;35.35
15701;BMP180;7950;42.744;23.174;2023-07-16T14:00:05;94457.66;;;35.39
15701;BMP180;7950;42.744;23.174;2023-07-16T14:02:38;94456.53;;;35.36
15701;BMP180;7950;42.744;23.174;2023-07-16T14:05:08;94451.09;;;35.33
15701;BMP180;7950;42.744;23.174;2023-07-16T14:07:36;94448.75;;;35.35
15701;BMP180;7950;42.744;23.174;2023-07-16T14:10:06;94457.28;;;35.37
15701;BMP180;7950;42.744;23.174;2023-07-16T14:12:35;94450.34;;;35.32
15701;BMP180;7950;42.744;23.174;2023-07-16T14:15:05;94453.13;;;35.22
15701;BMP180;7950;42.744;23.174;2023-07-16T14:17:33;94456.69;;;35.15
15701;BMP180;7950;42.744;23.174;2023-07-16T14:20:05;94446.97;;;35.14
15701;BMP180;7950;42.744;23.174;2023-07-16T14:22:34;94460.19;;;35.19